Time;durP1;ratioP1;P1;durP2;ratioP2;P2;SDS_P1;SDS_P2;PMS_P1;PMS_P2;Temp;Humidity;BMP_temperature;BMP_pressure;BME280_temperature;BME280_humidity;BME280_pressure;Samples;Min_cycle;Max_cycle;Signal;HPM_P1;HPM_P2
2022/12/29 00:00:27;;;;;;;12.50;7.80;;;;;;;5.60;73.63;99927.38;126010;1304;106560;-73
2022/12/29 00:03:53;;;;;;;11.60;7.20;;;;;;;5.57;73.63;99919.67;126022;1294;108691;-72
2022/12/29 00:06:58;;;;;;;13.00;7.70;;;;;;;5.56;73.67;99921.36;125988;1304;107690;-73
2022/12/29 00:10:05;;;;;;;13.30;7.60;;;;;;;5.54;73.65;99926.30;126007;1310;108539;-73
2022/12/29 00:16:35;;;;;;;11.70;7.90;;;;;;;5.51;73.62;99920.56;125984;1304;107572;-73
2022/12/29 00:36:41;;;;;;;11.70;6.70;;;;;;;5.60;73.43;99913.60;126037;1304;107540;-73
2022/12/29 00:46:34;;;;;;;9.20;6.10;;;;;;;5.58;73.30;99907.98;126053;1301;107583;-75
2022/12/29 00:49:39;;;;;;;12.40;6.40;;;;;;;5.57;73.45;99905.27;126039;1301;106476;-73
2022/12/29 00:52:45;;;;;;;10.10;6.20;;;;;;;5.52;73.25;99899.98;126181;1298;107634;-72
2022/12/29 00:55:50;;;;;;;9.60;5.80;;;;;;;5.48;73.29;99894.68;126143;1302;107685;-74
2022/12/29 00:58:56;;;;;;;9.20;5.90;;;;;;;5.45;73.53;99893.37;126052;1302;107548;-74
2022/12/29 01:02:01;;;;;;;10.30;6.10;;;;;;;5.43;73.38;99893.89;126094;1295;107585;-73
2022/12/29 01:05:08;;;;;;;9.40;6.30;;;;;;;5.41;73.40;99889.66;126129;1301;107464;-75
2022/12/29 01:08:13;;;;;;;10.60;5.70;;;;;;;5.39;73.37;99883.30;126113;1300;107523;-73
2022/12/29 01:11:19;;;;;;;8.60;5.30;;;;;;;5.36;73.24;99888.79;126058;1310;107505;-75
2022/12/29 01:14:25;;;;;;;9.50;5.50;;;;;;;5.34;73.28;99882.27;125919;1309;107522;-74
2022/12/29 01:17:30;;;;;;;9.20;4.70;;;;;;;5.33;73.02;99878.14;126168;1295;107517;-72
2022/12/29 01:20:36;;;;;;;7.30;4.90;;;;;;;5.34;73.31;99873.98;126174;1304;106441;-73
2022/12/29 01:23:43;;;;;;;8.00;4.90;;;;;;;5.37;73.01;99862.98;126060;1302;107538;-73
2022/12/29 01:26:49;;;;;;;10.40;5.40;;;;;;;5.40;73.19;99856.20;125980;1302;107509;-74
2022/12/29 01:29:55;;;;;;;8.30;5.10;;;;;;;5.45;73.01;99853.46;126032;1304;107541;-73
2022/12/29 01:33:01;;;;;;;7.20;5.00;;;;;;;5.47;72.91;99848.02;126151;1301;107271;-73
2022/12/29 01:36:09;;;;;;;7.50;4.90;;;;;;;5.48;73.01;99849.52;126196;1301;108703;-75
2022/12/29 01:39:14;;;;;;;8.50;4.70;;;;;;;5.47;72.94;99848.91;126094;1295;107524;-73
2022/12/29 01:42:24;;;;;;;7.10;4.70;;;;;;;5.44;72.83;99854.30;126125;1301;107296;-73
2022/12/29 01:45:29;;;;;;;7.00;4.80;;;;;;;5.40;72.80;99847.34;126058;1304;108018;-73
2022/12/29 01:48:35;;;;;;;6.50;4.50;;;;;;;5.39;72.92;99847.11;126210;1301;106623;-73
2022/12/29 01:51:44;;;;;;;8.70;5.00;;;;;;;5.37;72.54;99850.27;126135;1302;107575;-73
2022/12/29 01:54:53;;;;;;;10.40;4.70;;;;;;;5.38;72.67;99850.23;126390;1301;107265;-75
2022/12/29 01:58:05;;;;;;;8.60;4.90;;;;;;;5.35;72.70;99849.25;126180;1300;107572;-72
2022/12/29 02:01:12;;;;;;;6.80;4.30;;;;;;;5.34;72.74;99849.69;126044;1304;107584;-74
2022/12/29 02:04:18;;;;;;;6.40;4.30;;;;;;;5.33;72.63;99846.05;126208;1301;107585;-73
2022/12/29 02:07:27;;;;;;;7.10;4.30;;;;;;;5.31;72.80;99841.77;126201;1297;107601;-73
2022/12/29 02:10:35;;;;;;;7.10;4.20;;;;;;;5.32;72.73;99848.07;126050;1301;107265;-73
2022/12/29 02:13:40;;;;;;;7.70;4.10;;;;;;;5.30;72.78;99847.48;126178;1298;107569;-74
2022/12/29 02:17:07;;;;;;;7.40;3.80;;;;;;;5.30;72.66;99844.52;126073;1304;107548;-72
2022/12/29 02:20:57;;;;;;;8.30;4.50;;;;;;;5.34;72.69;99847.52;126162;1304;107528;-73
2022/12/29 02:24:38;;;;;;;6.10;4.00;;;;;;;5.42;72.39;99845.81;126044;1304;108668;-73
2022/12/29 02:27:54;;;;;;;8.60;4.40;;;;;;;5.49;72.32;99841.48;126024;1304;107577;-73
2022/12/29 02:31:15;;;;;;;6.40;3.90;;;;;;;5.55;72.23;99839.81;126053;1304;107503;-73
2022/12/29 02:34:29;;;;;;;8.30;4.40;;;;;;;5.57;72.23;99829.52;126170;1301;107485;-73
2022/12/29 02:37:41;;;;;;;7.80;4.80;;;;;;;5.58;72.19;99814.85;126221;1301;107532;-73
2022/12/29 02:40:54;;;;;;;6.90;4.30;;;;;;;5.56;71.95;99814.95;126155;1301;107544;-73
2022/12/29 02:44:08;;;;;;;6.60;3.90;;;;;;;5.56;72.54;99800.17;126142;1301;106569;-72
2022/12/29 02:47:21;;;;;;;6.10;3.80;;;;;;;5.54;72.40;99769.14;126024;1301;107643;-74
2022/12/29 02:50:34;;;;;;;5.70;3.80;;;;;;;5.51;72.44;99775.52;126061;1294;106651;-73
2022/12/29 02:57:03;;;;;;;5.40;3.70;;;;;;;5.45;72.39;99773.39;126088;1301;107311;-73
2022/12/29 03:00:13;;;;;;;7.10;3.60;;;;;;;5.42;72.54;99784.23;126036;1285;107543;-73
2022/12/29 03:03:29;;;;;;;6.60;3.90;;;;;;;5.40;72.61;99803.08;126130;1298;106598;-73
2022/12/29 03:06:51;;;;;;;7.20;3.60;;;;;;;5.39;72.73;99810.41;126191;1301;107598;-73
2022/12/29 03:10:11;;;;;;;7.60;4.70;;;;;;;5.38;72.53;99790.59;126150;1301;107422;-73
2022/12/29 03:16:53;;;;;;;6.10;3.70;;;;;;;5.37;72.59;99768.25;126108;1287;107598;-72
2022/12/29 03:20:05;;;;;;;7.10;4.20;;;;;;;5.40;72.53;99774.34;126136;1304;107538;-73
2022/12/29 03:23:11;;;;;;;6.10;3.70;;;;;;;5.46;72.42;99779.08;126051;1297;107489;-73
2022/12/29 03:26:19;;;;;;;5.80;3.60;;;;;;;5.54;72.15;99776.22;126133;1295;107387;-74
2022/12/29 03:29:28;;;;;;;6.40;3.70;;;;;;;5.57;72.30;99762.88;126129;1302;107408;-75
2022/12/29 03:32:40;;;;;;;6.50;3.90;;;;;;;5.59;72.31;99757.04;126020;1286;107486;-73
2022/12/29 03:35:49;;;;;;;7.30;3.80;;;;;;;5.58;72.16;99755.88;126052;1302;108704;-73
2022/12/29 03:38:59;;;;;;;6.00;3.60;;;;;;;5.58;71.98;99756.95;126098;1295;107267;-74
2022/12/29 03:42:14;;;;;;;5.90;3.40;;;;;;;5.57;72.06;99746.84;126090;1301;107473;-73
2022/12/29 03:45:21;;;;;;;6.40;3.70;;;;;;;5.55;71.91;99749.09;126115;1301;107645;-75
2022/12/29 03:48:26;;;;;;;6.40;4.00;;;;;;;5.52;71.96;99744.62;126206;1301;107518;-74
2022/12/29 03:51:33;;;;;;;7.20;4.00;;;;;;;5.47;71.87;99741.48;126204;1301;107516;-74
2022/12/29 03:54:38;;;;;;;6.60;3.90;;;;;;;5.42;71.89;99743.15;126070;1301;107559;-74
2022/12/29 03:57:44;;;;;;;7.20;4.00;;;;;;;5.38;72.06;99742.08;126183;1295;107414;-74
2022/12/29 04:00:54;;;;;;;5.50;3.80;;;;;;;5.33;72.06;99736.17;126211;1301;107565;-75
2022/12/29 04:04:00;;;;;;;16.00;7.80;;;;;;;5.29;72.15;99738.11;126045;1295;107483;-75
2022/12/29 04:07:06;;;;;;;13.10;6.10;;;;;;;5.26;72.06;99729.91;126032;1301;106316;-75
2022/12/29 04:10:11;;;;;;;8.20;4.60;;;;;;;5.22;72.13;99718.04;126081;1301;107512;-75
2022/12/29 04:13:17;;;;;;;8.40;4.30;;;;;;;5.20;72.13;99718.27;126222;1301;107576;-74
2022/12/29 04:16:23;;;;;;;6.90;4.50;;;;;;;5.15;72.11;99713.88;126021;1304;108627;-76
2022/12/29 04:19:29;;;;;;;14.80;7.30;;;;;;;5.10;72.05;99720.64;126048;1304;107504;-75
2022/12/29 04:22:35;;;;;;;8.60;5.50;;;;;;;5.07;72.17;99717.01;125961;1303;108784;-74
2022/12/29 04:25:41;;;;;;;7.30;4.20;;;;;;;5.07;72.11;99705.35;126095;1296;107520;-74
2022/12/29 04:28:48;;;;;;;9.60;4.40;;;;;;;5.12;71.92;99693.69;125967;1304;108579;-74
2022/12/29 04:32:07;;;;;;;6.10;4.30;;;;;;;5.17;71.99;99686.45;126073;1301;107535;-74
2022/12/29 04:35:17;;;;;;;7.60;4.80;;;;;;;5.20;71.82;99682.98;126147;1300;108095;-74
2022/12/29 04:38:24;;;;;;;8.30;4.90;;;;;;;5.21;71.87;99686.59;126225;1298;106599;-74
2022/12/29 04:41:29;;;;;;;70.50;26.30;;;;;;;5.21;71.84;99687.81;126088;1304;107562;-74
2022/12/29 04:44:35;;;;;;;41.80;15.80;;;;;;;5.21;71.79;99686.76;126244;1301;107405;-74
2022/12/29 04:47:50;;;;;;;21.80;8.40;;;;;;;5.19;71.59;99672.32;126162;1294;107638;-74
2022/12/29 04:51:19;;;;;;;10.00;5.60;;;;;;;5.16;71.64;99675.94;125880;1292;107553;-75
2022/12/29 04:54:25;;;;;;;45.90;18.90;;;;;;;5.11;71.82;99676.11;126261;1287;107547;-75
2022/12/29 04:57:44;;;;;;;19.80;9.30;;;;;;;5.09;71.65;99677.16;126237;1280;107570;-77
2022/12/29 05:00:55;;;;;;;12.80;7.30;;;;;;;5.09;71.86;99680.51;126090;1287;107612;-75
2022/12/29 05:04:03;;;;;;;27.00;16.00;;;;;;;5.09;71.69;99673.32;126222;1287;107451;-76
2022/12/29 05:07:09;;;;;;;12.10;6.90;;;;;;;5.07;71.94;99672.39;126080;1293;106657;-75
2022/12/29 05:10:18;;;;;;;8.60;4.90;;;;;;;5.06;72.03;99666.35;126121;1287;107555;-76
2022/12/29 05:13:24;;;;;;;8.50;5.10;;;;;;;5.06;71.90;99660.70;126356;1287;107628;-75
2022/12/29 05:16:30;;;;;;;7.80;4.90;;;;;;;5.04;71.80;99655.25;126039;1294;107759;-76
2022/12/29 05:19:38;;;;;;;8.00;4.30;;;;;;;5.01;71.69;99641.25;126090;1287;107687;-76
2022/12/29 05:22:43;;;;;;;7.20;4.50;;;;;;;5.00;71.84;99642.35;125984;1297;107646;-75
2022/12/29 05:25:49;;;;;;;7.50;4.70;;;;;;;5.04;71.87;99644.34;126038;1294;107468;-75
2022/12/29 05:29:05;;;;;;;8.20;4.50;;;;;;;5.11;71.72;99644.05;126321;1294;106846;-75
2022/12/29 05:32:11;;;;;;;9.70;4.80;;;;;;;5.18;71.71;99646.86;126249;1294;107541;-76
2022/12/29 05:35:17;;;;;;;7.70;5.20;;;;;;;5.22;71.46;99643.45;126038;1287;107563;-76
2022/12/29 05:38:23;;;;;;;7.80;4.70;;;;;;;5.26;71.29;99644.21;126064;1288;108121;-75
2022/12/29 05:41:29;;;;;;;8.20;5.00;;;;;;;5.27;71.47;99648.67;126311;1287;108085;-76
2022/12/29 05:44:53;;;;;;;7.80;5.00;;;;;;;5.27;71.48;99641.24;126050;1287;106915;-75
2022/12/29 05:48:19;;;;;;;7.60;4.70;;;;;;;5.30;71.45;99639.20;126094;1294;107878;-76
2022/12/29 05:51:43;;;;;;;81.30;30.50;;;;;;;5.30;71.31;99637.85;126220;1287;107285;-75
2022/12/29 05:54:49;;;;;;;18.70;8.10;;;;;;;5.30;71.30;99636.06;126003;1298;107582;-75
2022/12/29 05:57:58;;;;;;;284.90;113.30;;;;;;;5.31;71.41;99651.35;126064;1304;107601;-75
2022/12/29 06:01:04;;;;;;;217.90;77.70;;;;;;;5.30;71.49;99663.44;126049;1294;108817;-76
2022/12/29 06:04:10;;;;;;;29.00;11.80;;;;;;;5.29;71.48;99657.98;126058;1304;107532;-75
2022/12/29 06:07:15;;;;;;;53.40;24.70;;;;;;;5.28;71.18;99655.95;126041;1304;108635;-75
2022/12/29 06:10:24;;;;;;;20.30;10.80;;;;;;;5.28;71.58;99655.79;126112;1304;107512;-75
2022/12/29 06:13:36;;;;;;;13.00;7.60;;;;;;;5.28;71.47;99653.19;126062;1296;107562;-75
2022/12/29 06:16:42;;;;;;;11.00;6.20;;;;;;;5.26;71.51;99653.48;126014;1305;107632;-75
2022/12/29 06:19:50;;;;;;;10.60;7.10;;;;;;;5.24;71.81;99653.35;126038;1302;107626;-77
2022/12/29 06:22:57;;;;;;;9.50;4.90;;;;;;;5.24;72.05;99653.50;126048;1295;108728;-75
2022/12/29 06:26:03;;;;;;;6.70;4.20;;;;;;;5.27;71.85;99660.16;126065;1304;106648;-75
2022/12/29 06:29:08;;;;;;;7.30;4.50;;;;;;;5.34;71.85;99664.81;126029;1304;107522;-73
2022/12/29 06:32:15;;;;;;;7.20;4.40;;;;;;;5.42;71.61;99667.30;126088;1304;107633;-74
2022/12/29 06:35:26;;;;;;;7.80;4.20;;;;;;;5.49;71.48;99662.96;126080;1303;108650;-74
2022/12/29 06:38:31;;;;;;;8.60;4.30;;;;;;;5.53;71.43;99659.98;126180;1303;107506;-77
2022/12/29 06:41:38;;;;;;;6.90;4.40;;;;;;;5.56;71.32;99652.52;126170;1302;107548;-74
2022/12/29 06:44:53;;;;;;;8.60;4.70;;;;;;;5.57;71.39;99645.55;126086;1305;108700;-74
2022/12/29 06:47:58;;;;;;;6.60;4.50;;;;;;;5.57;71.01;99638.14;126053;1302;107509;-74
2022/12/29 06:51:04;;;;;;;10.10;5.30;;;;;;;5.56;71.25;99641.42;126083;1304;107581;-74
2022/12/29 06:54:10;;;;;;;7.60;4.70;;;;;;;5.56;71.04;99647.89;126072;1302;107526;-73
2022/12/29 06:57:15;;;;;;;6.30;4.00;;;;;;;5.56;71.15;99645.48;126056;1304;107412;-73
2022/12/29 07:00:21;;;;;;;7.70;4.70;;;;;;;5.54;71.02;99648.10;126062;1296;106012;-74
2022/12/29 07:03:27;;;;;;;29.70;14.10;;;;;;;5.55;71.05;99639.57;126052;1303;107394;-74
2022/12/29 07:06:32;;;;;;;35.10;15.20;;;;;;;5.55;70.85;99641.48;126041;1294;107241;-74
2022/12/29 07:09:38;;;;;;;18.10;8.90;;;;;;;5.56;71.27;99642.39;126051;1297;106675;-73
2022/12/29 07:12:43;;;;;;;45.70;20.10;;;;;;;5.57;70.91;99640.79;126082;1304;106543;-75
2022/12/29 07:15:49;;;;;;;56.50;24.70;;;;;;;5.59;71.05;99637.27;126060;1287;107332;-74
2022/12/29 07:18:54;;;;;;;18.50;9.00;;;;;;;5.61;70.84;99644.80;126051;1304;107573;-74
2022/12/29 07:22:00;;;;;;;27.50;11.90;;;;;;;5.64;70.79;99649.15;126100;1304;107766;-75
2022/12/29 07:25:07;;;;;;;13.40;6.40;;;;;;;5.65;70.69;99642.11;126071;1304;107512;-76
2022/12/29 07:28:13;;;;;;;37.20;19.40;;;;;;;5.67;70.36;99652.34;126135;1290;108287;-76
2022/12/29 07:31:21;;;;;;;33.90;19.30;;;;;;;5.71;70.66;99649.89;126300;1297;107557;-74
2022/12/29 07:34:27;;;;;;;14.10;7.70;;;;;;;5.75;70.59;99649.77;126161;1307;107396;-72
2022/12/29 07:37:32;;;;;;;20.70;12.40;;;;;;;5.79;70.69;99652.42;126068;1302;107617;-71
2022/12/29 07:40:38;;;;;;;12.00;6.70;;;;;;;5.83;70.69;99648.35;126069;1302;107454;-71
2022/12/29 07:43:47;;;;;;;10.50;6.60;;;;;;;5.84;70.35;99640.83;126044;1304;106817;-71
2022/12/29 07:47:31;;;;;;;9.90;5.90;;;;;;;5.87;70.28;99636.14;125222;1308;107493;-71
2022/12/29 07:50:37;;;;;;;9.40;6.30;;;;;;;5.88;70.17;99631.30;125215;1300;107282;-71
2022/12/29 07:53:42;;;;;;;7.80;5.30;;;;;;;5.88;70.03;99634.08;126047;1300;107528;-73
2022/12/29 07:56:48;;;;;;;8.20;5.10;;;;;;;5.90;70.25;99635.83;126167;1289;107528;-72
2022/12/29 07:59:53;;;;;;;7.40;4.40;;;;;;;5.93;70.33;99642.13;126148;1305;107565;-76
2022/12/29 08:02:59;;;;;;;8.90;5.00;;;;;;;5.96;69.98;99643.54;126261;1301;107520;-72
2022/12/29 08:06:05;;;;;;;7.90;4.80;;;;;;;5.98;69.91;99640.98;126067;1302;108658;-71
2022/12/29 08:09:11;;;;;;;7.40;4.60;;;;;;;6.01;70.01;99644.25;126071;1297;108568;-71
2022/12/29 08:12:17;;;;;;;7.80;4.60;;;;;;;6.04;70.17;99648.77;125986;1304;107111;-71
2022/12/29 08:15:23;;;;;;;6.80;4.80;;;;;;;6.07;70.29;99655.23;126065;1302;107411;-71
2022/12/29 08:18:28;;;;;;;6.50;4.50;;;;;;;6.09;70.05;99658.38;125962;1310;107299;-71
2022/12/29 08:21:34;;;;;;;7.50;4.90;;;;;;;6.11;70.16;99650.60;126107;1302;107645;-71
2022/12/29 08:24:39;;;;;;;6.40;4.50;;;;;;;6.14;69.75;99651.78;126072;1304;107538;-71
2022/12/29 08:27:45;;;;;;;8.20;4.70;;;;;;;6.15;69.82;99649.02;126018;1304;107657;-73
2022/12/29 08:30:51;;;;;;;7.40;4.80;;;;;;;6.16;70.01;99654.77;125920;1301;107292;-74
2022/12/29 08:33:56;;;;;;;8.50;5.40;;;;;;;6.18;69.88;99662.02;126117;1304;109030;-76
2022/12/29 08:37:02;;;;;;;11.30;4.90;;;;;;;6.20;69.65;99661.63;126016;1303;107294;-76
2022/12/29 08:40:10;;;;;;;7.80;4.80;;;;;;;6.22;69.90;99664.80;126022;1304;107323;-72
2022/12/29 08:43:15;;;;;;;7.80;5.20;;;;;;;6.26;69.94;99663.41;126245;1302;107558;-74
2022/12/29 08:46:21;;;;;;;7.10;4.70;;;;;;;6.30;69.74;99663.71;126045;1304;106643;-75
2022/12/29 08:49:27;;;;;;;8.20;5.20;;;;;;;6.35;69.71;99656.00;126172;1294;107544;-74
2022/12/29 08:52:32;;;;;;;9.30;5.30;;;;;;;6.39;69.27;99654.77;126353;1293;107440;-74
2022/12/29 08:55:38;;;;;;;8.40;5.10;;;;;;;6.43;69.45;99654.61;126199;1299;107434;-80
2022/12/29 08:58:43;;;;;;;8.70;4.90;;;;;;;6.46;69.65;99659.07;126181;1294;107514;-78
2022/12/29 09:01:49;;;;;;;7.60;4.80;;;;;;;6.47;69.19;99661.41;126117;1294;108672;-78
2022/12/29 09:04:56;;;;;;;11.30;6.00;;;;;;;6.51;69.15;99662.33;126130;1287;106556;-78
2022/12/29 09:08:02;;;;;;;9.90;6.00;;;;;;;6.54;69.42;99656.02;126229;1286;107354;-77
2022/12/29 09:11:13;;;;;;;8.90;5.40;;;;;;;6.59;69.31;99650.67;126251;1294;107406;-78
2022/12/29 09:14:19;;;;;;;9.00;5.60;;;;;;;6.63;69.52;99647.90;126084;1292;107409;-78
2022/12/29 09:17:43;;;;;;;9.40;5.50;;;;;;;6.68;69.18;99652.27;126077;1304;106576;-74
2022/12/29 09:20:49;;;;;;;11.00;7.30;;;;;;;6.73;69.15;99648.48;126240;1288;107365;-75
2022/12/29 09:23:54;;;;;;;9.90;6.20;;;;;;;6.78;69.48;99651.92;126102;1293;107529;-72
2022/12/29 09:27:00;;;;;;;8.70;5.30;;;;;;;6.82;69.28;99646.92;126047;1304;106250;-72
2022/12/29 09:30:08;;;;;;;7.60;5.00;;;;;;;6.84;69.15;99643.17;126094;1304;107637;-71
2022/12/29 09:33:13;;;;;;;10.10;5.60;;;;;;;6.87;69.32;99641.70;126030;1302;107545;-70
2022/12/29 09:36:19;;;;;;;10.50;6.10;;;;;;;6.92;69.31;99634.80;125954;1295;108295;-70
2022/12/29 09:39:25;;;;;;;8.40;5.50;;;;;;;6.99;69.26;99636.28;125999;1301;108316;-73
2022/12/29 09:42:38;;;;;;;8.90;5.70;;;;;;;7.09;69.41;99637.14;126113;1302;105928;-69
2022/12/29 09:45:48;;;;;;;9.90;6.20;;;;;;;7.19;68.71;99632.25;126021;1302;108020;-70
2022/12/29 09:49:00;;;;;;;9.50;5.80;;;;;;;7.26;68.76;99632.09;125952;1291;109287;-73
2022/12/29 09:52:12;;;;;;;9.20;5.70;;;;;;;7.34;68.86;99634.88;125939;1289;106695;-71
2022/12/29 09:55:21;;;;;;;11.60;6.50;;;;;;;7.43;68.81;99633.71;126098;1302;107491;-69
2022/12/29 09:58:34;;;;;;;9.50;5.40;;;;;;;7.50;68.69;99623.85;126206;1293;107423;-70
2022/12/29 10:01:47;;;;;;;7.70;5.30;;;;;;;7.56;68.62;99622.02;126044;1294;108317;-71
2022/12/29 10:04:53;;;;;;;8.50;5.10;;;;;;;7.63;68.65;99615.80;126186;1290;108439;-73
2022/12/29 10:08:13;;;;;;;8.40;5.30;;;;;;;7.68;68.63;99618.77;126174;1294;107451;-72
2022/12/29 10:11:33;;;;;;;8.30;5.20;;;;;;;7.71;68.45;99618.41;126147;1293;107497;-76
2022/12/29 10:14:59;;;;;;;8.00;5.40;;;;;;;7.74;68.38;99616.52;126155;1294;107549;-77
2022/12/29 10:18:19;;;;;;;9.10;5.30;;;;;;;7.73;68.32;99617.68;126071;1296;108624;-69
2022/12/29 10:21:35;;;;;;;10.60;5.30;;;;;;;7.73;68.22;99616.98;125963;1311;108188;-70
2022/12/29 10:24:43;;;;;;;9.80;5.90;;;;;;;7.73;68.19;99608.48;126095;1300;107447;-71
2022/12/29 10:27:53;;;;;;;10.80;6.50;;;;;;;7.74;68.19;99601.66;126497;1286;107548;-81
2022/12/29 10:31:00;;;;;;;13.20;7.60;;;;;;;7.75;68.30;99605.98;126235;1293;107628;-72
2022/12/29 10:34:16;;;;;;;13.70;7.90;;;;;;;7.76;68.38;99602.70;126143;1290;108834;-71
2022/12/29 10:37:31;;;;;;;15.20;8.30;;;;;;;7.77;68.30;99599.59;126047;1304;107511;-72
2022/12/29 10:40:43;;;;;;;17.00;8.70;;;;;;;7.81;68.36;99604.65;126031;1304;107267;-71
2022/12/29 10:43:52;;;;;;;23.70;12.90;;;;;;;7.85;68.15;99603.19;126143;1307;106706;-71
2022/12/29 10:47:01;;;;;;;44.50;21.50;;;;;;;7.88;68.22;99598.36;125849;1304;107531;-72
2022/12/29 10:50:08;;;;;;;17.10;9.60;;;;;;;7.92;68.26;99600.80;126314;1304;108555;-72
2022/12/29 10:53:20;;;;;;;13.60;7.80;;;;;;;7.97;68.15;99604.73;126154;1302;107545;-73
2022/12/29 10:56:34;;;;;;;11.40;7.10;;;;;;;7.99;68.15;99605.41;126122;1299;107542;-72
2022/12/29 10:59:39;;;;;;;12.50;7.20;;;;;;;7.98;67.74;99591.52;126123;1307;107495;-72
2022/12/29 11:03:09;;;;;;;11.80;6.80;;;;;;;7.97;67.88;99584.20;126214;1307;107535;-73
2022/12/29 11:06:19;;;;;;;10.90;6.90;;;;;;;7.95;68.10;99583.14;127254;1300;109332;-72
2022/12/29 11:09:29;;;;;;;9.70;6.30;;;;;;;7.95;67.99;99583.80;126080;1302;107475;-72
2022/12/29 11:12:36;;;;;;;11.30;6.70;;;;;;;7.97;68.12;99576.94;126124;1301;109242;-73
2022/12/29 11:15:44;;;;;;;9.80;6.30;;;;;;;7.98;68.12;99568.81;126227;1307;107428;-73
2022/12/29 11:18:51;;;;;;;11.50;6.60;;;;;;;7.99;68.11;99573.20;126288;1301;107658;-73
2022/12/29 11:22:12;;;;;;;11.30;6.70;;;;;;;7.98;68.10;99572.05;126254;1294;107303;-73
2022/12/29 11:25:18;;;;;;;11.60;7.20;;;;;;;7.98;68.12;99569.56;126232;1302;107567;-73
2022/12/29 11:28:29;;;;;;;13.80;9.30;;;;;;;7.99;68.02;99564.69;126280;1302;107491;-73
2022/12/29 11:31:43;;;;;;;11.60;6.90;;;;;;;7.97;68.25;99560.42;126272;1301;106440;-74
2022/12/29 11:34:49;;;;;;;12.00;6.90;;;;;;;7.97;68.11;99561.48;126202;1301;108696;-73
2022/12/29 11:37:59;;;;;;;11.10;6.60;;;;;;;7.99;68.29;99564.34;126324;1303;107435;-73
2022/12/29 11:41:07;;;;;;;12.60;7.50;;;;;;;8.00;68.34;99557.16;126341;1302;107747;-72
2022/12/29 11:44:15;;;;;;;10.70;6.80;;;;;;;8.02;68.20;99561.70;126178;1302;107529;-72
2022/12/29 11:47:29;;;;;;;12.10;7.10;;;;;;;8.04;68.35;99560.02;126220;1305;106829;-72
2022/12/29 11:50:38;;;;;;;11.60;6.20;;;;;;;8.06;67.95;99558.23;126270;1300;107551;-74
2022/12/29 11:53:48;;;;;;;12.00;6.90;;;;;;;8.10;68.11;99549.20;126191;1302;107496;-72
2022/12/29 11:56:55;;;;;;;9.70;6.30;;;;;;;8.13;68.08;99544.45;126271;1307;107550;-72
2022/12/29 12:00:04;;;;;;;10.70;6.50;;;;;;;8.17;68.05;99540.15;126219;1302;107432;-72
2022/12/29 12:03:21;;;;;;;9.20;6.50;;;;;;;8.23;68.06;99544.14;126222;1308;107812;-72
2022/12/29 12:06:30;;;;;;;9.30;6.10;;;;;;;8.30;68.00;99542.80;126215;1307;107533;-72
2022/12/29 12:09:43;;;;;;;12.30;7.30;;;;;;;8.35;67.92;99548.48;126243;1307;107377;-72
2022/12/29 12:12:57;;;;;;;11.10;6.80;;;;;;;8.40;67.83;99544.92;126074;1302;108524;-72
2022/12/29 12:16:08;;;;;;;12.60;6.90;;;;;;;8.44;67.94;99543.45;126167;1293;107627;-72
2022/12/29 12:19:21;;;;;;;10.00;6.20;;;;;;;8.49;67.78;99533.81;126101;1305;107962;-72
2022/12/29 12:22:32;;;;;;;10.50;6.60;;;;;;;8.53;68.06;99527.66;126089;1307;107531;-72
2022/12/29 12:25:44;;;;;;;11.00;6.50;;;;;;;8.57;68.00;99524.23;126139;1302;107556;-72
2022/12/29 12:28:55;;;;;;;9.70;5.60;;;;;;;8.56;68.02;99516.16;126142;1307;108732;-72
2022/12/29 12:32:03;;;;;;;25.40;12.80;;;;;;;8.55;67.88;99517.70;126233;1293;107465;-72
2022/12/29 12:35:12;;;;;;;52.20;23.50;;;;;;;8.52;67.98;99523.73;126167;1293;107357;-72
2022/12/29 12:38:31;;;;;;;27.20;12.30;;;;;;;8.50;67.99;99522.69;126212;1302;105495;-72
2022/12/29 12:41:50;;;;;;;26.50;12.60;;;;;;;8.50;68.12;99526.77;126141;1307;107841;-72
2022/12/29 12:45:10;;;;;;;87.80;53.70;;;;;;;8.50;68.05;99517.77;126208;1307;107637;-72
2022/12/29 12:48:34;;;;;;;20.10;11.20;;;;;;;8.52;68.13;99517.50;126247;1300;107663;-71
2022/12/29 12:51:49;;;;;;;15.10;10.10;;;;;;;8.53;68.07;99517.71;126164;1305;107368;-71
2022/12/29 12:55:19;;;;;;;10.80;7.00;;;;;;;8.54;68.20;99522.10;126045;1301;108013;-71
2022/12/29 12:58:36;;;;;;;9.70;6.40;;;;;;;8.54;68.09;99520.91;126090;1301;107406;-72
2022/12/29 13:01:55;;;;;;;10.80;6.60;;;;;;;8.54;68.13;99523.17;126229;1307;107596;-73
2022/12/29 13:05:17;;;;;;;9.90;6.30;;;;;;;8.53;67.94;99515.10;126299;1302;109172;-72
2022/12/29 13:08:47;;;;;;;9.60;6.30;;;;;;;8.51;68.10;99515.68;126228;1304;107584;-71
2022/12/29 13:12:04;;;;;;;9.60;6.40;;;;;;;8.50;68.19;99515.27;126237;1302;107664;-72
2022/12/29 13:15:23;;;;;;;10.30;6.70;;;;;;;8.49;68.19;99519.61;126358;1295;107637;-72
2022/12/29 13:18:38;;;;;;;10.90;6.70;;;;;;;8.49;68.22;99517.83;126265;1303;107593;-72
2022/12/29 13:21:56;;;;;;;9.70;6.10;;;;;;;8.49;68.37;99522.94;126247;1303;108890;-72
2022/12/29 13:25:19;;;;;;;12.50;6.60;;;;;;;8.48;68.11;99524.30;126287;1298;107480;-72
2022/12/29 13:28:31;;;;;;;10.80;5.90;;;;;;;8.47;68.27;99524.09;126062;1302;184190;-72
2022/12/29 13:31:44;;;;;;;8.20;5.50;;;;;;;8.47;68.40;99523.58;126089;1302;107534;-72
2022/12/29 13:35:02;;;;;;;9.70;5.90;;;;;;;8.47;68.31;99526.05;126117;1303;107601;-71
2022/12/29 13:38:19;;;;;;;11.30;5.80;;;;;;;8.49;68.27;99535.08;126029;1302;107115;-72
2022/12/29 13:41:31;;;;;;;9.80;6.20;;;;;;;8.51;68.41;99540.54;126071;1307;107269;-72
2022/12/29 13:44:39;;;;;;;10.90;5.70;;;;;;;8.52;68.27;99537.39;126059;1308;107530;-72
2022/12/29 13:47:52;;;;;;;9.90;5.50;;;;;;;8.54;68.21;99536.33;126081;1302;107562;-71
2022/12/29 13:50:58;;;;;;;;;;;;;;;8.54;68.18;99538.27;126075;1293;107732;-72
2022/12/29 13:54:19;;;;;;;9.00;5.70;;;;;;;8.54;68.05;99552.21;126092;1296;107380;-71
2022/12/29 13:57:39;;;;;;;9.90;5.80;;;;;;;8.54;68.12;99540.22;126104;1287;107495;-72
2022/12/29 14:00:56;;;;;;;9.10;5.50;;;;;;;8.53;68.29;99538.69;126096;1307;107495;-71
2022/12/29 14:04:09;;;;;;;10.70;5.70;;;;;;;8.53;68.10;99533.53;126081;1307;107252;-71
2022/12/29 14:07:16;;;;;;;;;;;;;;;8.52;68.20;99527.45;126115;1302;106566;-71
2022/12/29 14:10:35;;;;;;;9.20;5.60;;;;;;;8.52;68.24;99526.42;126060;1307;106820;-72
2022/12/29 14:13:44;;;;;;;8.20;5.50;;;;;;;8.50;68.39;99526.45;126100;1307;107722;-71
2022/12/29 14:16:50;;;;;;;8.90;5.40;;;;;;;8.49;68.32;99527.00;126131;1304;109429;-71
2022/12/29 14:19:56;;;;;;;10.20;6.00;;;;;;;8.49;68.31;99531.13;126048;1301;107470;-72
2022/12/29 14:23:23;;;;;;;8.60;5.60;;;;;;;8.47;68.30;99534.51;126062;1302;107575;-71
2022/12/29 14:26:38;;;;;;;7.70;5.50;;;;;;;8.45;68.40;99535.39;126091;1304;107631;-71
2022/12/29 14:29:48;;;;;;;9.70;5.50;;;;;;;8.44;68.43;99533.59;126084;1302;107564;-72
2022/12/29 14:33:15;;;;;;;9.40;5.60;;;;;;;8.43;68.45;99540.04;126052;1305;107574;-72
2022/12/29 14:36:34;;;;;;;12.00;6.30;;;;;;;8.43;68.63;99541.98;126116;1302;108622;-73
2022/12/29 14:39:42;;;;;;;11.70;7.20;;;;;;;8.42;68.50;99541.93;126063;1304;107709;-73
2022/12/29 14:42:48;;;;;;;11.80;6.90;;;;;;;8.41;68.60;99539.84;126100;1307;107175;-73
2022/12/29 14:46:02;;;;;;;12.50;7.20;;;;;;;8.41;68.71;99534.73;126111;1302;107522;-73
2022/12/29 14:49:16;;;;;;;11.60;6.40;;;;;;;8.40;68.80;99540.17;125980;1303;107593;-72
2022/12/29 14:52:25;;;;;;;12.40;6.70;;;;;;;8.39;68.80;99537.08;126188;1308;108633;-72
2022/12/29 14:55:40;;;;;;;10.70;6.30;;;;;;;8.41;68.95;99539.89;126039;1304;107424;-72
2022/12/29 14:58:57;;;;;;;12.20;7.10;;;;;;;8.44;68.76;99537.41;126066;1301;107466;-73
2022/12/29 15:02:05;;;;;;;12.50;6.70;;;;;;;8.46;68.69;99545.92;126057;1307;107590;-72
2022/12/29 15:05:31;;;;;;;12.70;6.70;;;;;;;8.44;68.68;99552.00;126054;1302;108702;-72
2022/12/29 15:08:41;;;;;;;11.90;7.00;;;;;;;8.41;68.82;99553.58;126167;1293;106685;-72
2022/12/29 15:11:52;;;;;;;10.30;6.50;;;;;;;8.37;68.79;99552.71;126142;1293;107412;-73
2022/12/29 15:14:59;;;;;;;9.20;6.20;;;;;;;8.34;68.80;99556.61;126143;1295;106192;-72